createdAt,value
2019-06-27T00:00:28.141Z,11.05
2019-06-27T00:02:56.557Z,6.25
2019-06-27T00:05:44.407Z,6.22
2019-06-27T00:08:12.886Z,7.53
2019-06-27T00:10:41.317Z,7.05
2019-06-27T00:13:09.753Z,4.65
2019-06-27T00:15:38.218Z,7.10
2019-06-27T00:18:06.663Z,9.13
2019-06-27T00:20:35.095Z,7.30
2019-06-27T00:23:03.506Z,12.18
2019-06-27T00:25:31.917Z,9.65
2019-06-27T00:28:00.329Z,7.17
2019-06-27T00:30:28.762Z,10.60
2019-06-27T00:32:57.174Z,7.00
2019-06-27T00:35:25.600Z,6.87
2019-06-27T00:37:54.082Z,8.53
2019-06-27T00:40:22.526Z,10.80
2019-06-27T00:42:50.968Z,9.23
2019-06-27T00:45:19.466Z,8.15
2019-06-27T00:47:47.865Z,4.37
2019-06-27T00:50:16.745Z,9.03
2019-06-27T00:52:45.170Z,8.58
2019-06-27T00:55:13.670Z,7.40
2019-06-27T00:57:42.091Z,8.25
2019-06-27T01:00:12.066Z,10.58
2019-06-27T01:02:40.470Z,7.58
2019-06-27T01:05:09.026Z,9.60
2019-06-27T01:07:37.465Z,7.35
2019-06-27T01:10:07.044Z,9.15
2019-06-27T01:12:35.436Z,10.98
2019-06-27T01:15:05.393Z,5.97
2019-06-27T01:17:33.836Z,6.25
2019-06-27T01:20:02.269Z,8.98
2019-06-27T01:22:30.962Z,9.08
2019-06-27T01:24:59.402Z,8.93
2019-06-27T01:27:30.353Z,8.25
2019-06-27T01:29:57.965Z,13.65
2019-06-27T01:32:26.366Z,7.22
2019-06-27T01:34:54.809Z,8.35
2019-06-27T01:37:23.242Z,14.60
2019-06-27T01:39:51.705Z,6.28
2019-06-27T01:42:20.183Z,8.73
2019-06-27T01:44:50.268Z,11.12
2019-06-27T01:47:18.666Z,10.10
2019-06-27T01:49:47.170Z,10.20
2019-06-27T01:52:15.608Z,9.30
2019-06-27T01:54:44.011Z,11.97
2019-06-27T01:57:12.447Z,10.03
2019-06-27T01:59:40.858Z,10.20
2019-06-27T02:02:09.571Z,7.50
2019-06-27T02:04:38.024Z,13.18
2019-06-27T02:07:06.452Z,8.55
2019-06-27T02:09:35.070Z,7.15
2019-06-27T02:12:03.553Z,9.00
2019-06-27T02:14:31.941Z,5.85
2019-06-27T02:17:00.358Z,8.95
2019-06-27T02:19:28.766Z,11.63
2019-06-27T02:21:57.187Z,8.10
2019-06-27T02:24:25.598Z,7.33
2019-06-27T02:26:54.034Z,11.70
2019-06-27T02:29:22.545Z,9.28
2019-06-27T02:31:51.022Z,7.33
2019-06-27T02:34:19.450Z,5.55
2019-06-27T02:36:47.885Z,8.15
2019-06-27T02:39:16.315Z,6.62
2019-06-27T02:41:44.750Z,5.75
2019-06-27T02:44:13.179Z,11.20
2019-06-27T02:46:41.615Z,5.53
2019-06-27T02:49:10.042Z,8.65
2019-06-27T02:51:38.470Z,7.30
2019-06-27T02:54:06.873Z,12.30
2019-06-27T02:56:35.295Z,8.68
2019-06-27T02:59:03.809Z,6.12
2019-06-27T03:01:32.231Z,7.08
2019-06-27T03:04:00.622Z,6.67
2019-06-27T03:06:29.066Z,13.90
2019-06-27T03:08:57.817Z,12.23
2019-06-27T03:11:26.214Z,8.43
2019-06-27T03:13:54.650Z,9.65
2019-06-27T03:16:22.757Z,12.65
2019-06-27T03:18:51.178Z,10.48
2019-06-27T03:21:19.592Z,7.92
2019-06-27T03:23:48.086Z,9.23
2019-06-27T03:26:16.523Z,11.95
2019-06-27T03:28:53.149Z,11.90
2019-06-27T03:31:14.738Z,6.80
2019-06-27T03:33:43.240Z,11.10
2019-06-27T03:36:11.745Z,10.50
2019-06-27T03:38:40.215Z,13.10
2019-06-27T03:41:08.638Z,10.45
2019-06-27T03:43:37.257Z,11.28
2019-06-27T03:46:25.047Z,7.70
2019-06-27T03:48:53.466Z,5.95
2019-06-27T03:51:21.866Z,7.05
2019-06-27T03:53:50.307Z,9.23
2019-06-27T03:56:18.733Z,6.60
2019-06-27T03:58:47.174Z,12.00
2019-06-27T04:01:15.601Z,11.68
2019-06-27T04:03:44.085Z,11.73
2019-06-27T04:06:12.518Z,7.42
2019-06-27T04:08:40.954Z,11.30
2019-06-27T04:11:09.026Z,11.78
2019-06-27T04:13:37.491Z,10.18
2019-06-27T04:16:05.958Z,8.00
2019-06-27T04:18:34.413Z,8.80
2019-06-27T04:21:02.906Z,10.15
2019-06-27T04:23:31.375Z,12.55
2019-06-27T04:25:59.813Z,10.60
2019-06-27T04:28:28.229Z,7.72
2019-06-27T04:30:56.315Z,8.73
2019-06-27T04:33:24.711Z,10.00
2019-06-27T04:35:53.146Z,7.47
2019-06-27T04:38:21.596Z,8.63
2019-06-27T04:40:50.045Z,11.80
2019-06-27T04:43:18.514Z,7.97
2019-06-27T04:45:46.666Z,10.00
2019-06-27T04:48:15.110Z,8.75
2019-06-27T04:50:43.536Z,6.67
2019-06-27T04:53:11.975Z,12.40
2019-06-27T04:55:40.414Z,5.83
2019-06-27T04:58:08.836Z,6.05
2019-06-27T05:00:37.265Z,9.38
2019-06-27T05:03:05.711Z,15.18
2019-06-27T05:05:34.141Z,10.25
2019-06-27T05:08:02.581Z,10.70
2019-06-27T05:10:30.986Z,12.98
2019-06-27T05:12:59.403Z,14.58
2019-06-27T05:15:27.809Z,12.60
2019-06-27T05:17:56.260Z,10.25
2019-06-27T05:20:24.654Z,10.05
2019-06-27T05:22:53.070Z,15.08
2019-06-27T05:25:21.488Z,10.58
2019-06-27T05:27:49.898Z,7.05
2019-06-27T05:30:18.377Z,6.58
2019-06-27T05:32:49.501Z,10.05
2019-06-27T05:35:37.450Z,10.20
2019-06-27T05:38:05.861Z,11.83
2019-06-27T05:40:34.293Z,8.83
2019-06-27T05:43:02.714Z,7.67
2019-06-27T05:45:31.125Z,9.18
2019-06-27T05:47:59.528Z,10.93
2019-06-27T05:50:27.981Z,9.28
2019-06-27T05:52:56.394Z,13.05
2019-06-27T05:55:24.829Z,8.90
2019-06-27T05:57:53.257Z,11.28
2019-06-27T06:00:28.464Z,9.25
2019-06-27T06:02:52.241Z,13.45
2019-06-27T06:05:20.721Z,10.05
2019-06-27T06:07:49.203Z,14.93
2019-06-27T06:10:18.052Z,11.85
2019-06-27T06:12:46.451Z,13.80
2019-06-27T06:15:15.157Z,6.47
2019-06-27T06:17:43.556Z,8.90
2019-06-27T06:20:12.406Z,9.53
2019-06-27T06:22:40.862Z,12.03
2019-06-27T06:25:09.275Z,8.58
2019-06-27T06:27:37.742Z,9.75
2019-06-27T06:30:06.974Z,12.35
2019-06-27T06:32:35.385Z,8.38
2019-06-27T06:35:06.148Z,8.93
2019-06-27T06:37:34.551Z,14.85
2019-06-27T06:40:03.106Z,6.50
2019-06-27T06:42:31.568Z,15.63
2019-06-27T06:44:59.991Z,11.22
2019-06-27T06:47:28.438Z,8.83
2019-06-27T06:49:56.904Z,7.08
2019-06-27T06:52:25.354Z,6.92
2019-06-27T06:54:53.860Z,14.98
2019-06-27T06:57:22.286Z,9.13
2019-06-27T06:59:50.848Z,10.20
2019-06-27T07:02:19.316Z,8.00
2019-06-27T07:04:47.734Z,6.15
2019-06-27T07:07:16.136Z,7.67
2019-06-27T07:09:44.552Z,6.95
2019-06-27T07:12:12.975Z,9.55
2019-06-27T07:14:41.391Z,7.50
2019-06-27T07:17:09.797Z,10.53
2019-06-27T07:19:38.237Z,9.25
2019-06-27T07:22:06.830Z,9.88
2019-06-27T07:24:35.265Z,10.93
2019-06-27T07:27:03.678Z,10.13
2019-06-27T07:29:32.094Z,9.20
2019-06-27T07:32:00.503Z,19.02
2019-06-27T07:34:28.921Z,10.63
2019-06-27T07:36:57.477Z,8.70
2019-06-27T07:39:25.890Z,13.15
2019-06-27T07:41:54.312Z,15.10
2019-06-27T07:44:22.729Z,12.37
2019-06-27T07:46:51.180Z,16.35
2019-06-27T07:49:19.659Z,15.18
2019-06-27T07:51:48.069Z,10.65
2019-06-27T07:54:16.485Z,10.93
2019-06-27T07:56:46.335Z,12.00
2019-06-27T07:59:15.097Z,6.62
2019-06-27T08:01:43.514Z,9.53
2019-06-27T08:04:11.918Z,12.73
2019-06-27T08:06:40.347Z,13.53
2019-06-27T08:09:08.740Z,9.58
2019-06-27T08:11:37.173Z,8.40
2019-06-27T08:14:05.611Z,18.00
2019-06-27T08:16:34.045Z,7.55
2019-06-27T08:19:02.448Z,12.95
2019-06-27T08:21:30.860Z,12.95
2019-06-27T08:23:59.264Z,13.98
2019-06-27T08:26:27.673Z,9.58
2019-06-27T08:28:56.073Z,7.25
2019-06-27T08:31:24.574Z,10.80
2019-06-27T08:33:52.964Z,9.83
2019-06-27T08:36:21.040Z,8.18
2019-06-27T08:38:49.551Z,5.78
2019-06-27T08:41:17.965Z,9.50
2019-06-27T08:43:46.364Z,8.38
2019-06-27T08:46:14.769Z,9.45
2019-06-27T08:48:43.197Z,10.00
2019-06-27T08:51:11.684Z,7.95
2019-06-27T08:53:40.082Z,9.60
2019-06-27T08:56:08.496Z,7.53
2019-06-27T08:58:36.898Z,12.40
2019-06-27T09:01:05.327Z,11.15
2019-06-27T09:03:33.798Z,8.85
2019-06-27T09:06:02.221Z,8.48
2019-06-27T09:08:30.631Z,12.23
2019-06-27T09:10:59.040Z,11.93
2019-06-27T09:13:27.441Z,15.45
2019-06-27T09:15:55.863Z,15.08
2019-06-27T09:18:24.260Z,9.18
2019-06-27T09:20:52.720Z,12.68
2019-06-27T09:23:21.145Z,7.37
2019-06-27T09:25:49.565Z,12.13
2019-06-27T09:28:17.994Z,12.20
2019-06-27T09:30:46.477Z,11.30
2019-06-27T09:33:14.900Z,10.30
2019-06-27T09:35:43.329Z,7.78
2019-06-27T09:38:11.739Z,8.93
2019-06-27T09:40:40.163Z,8.65
2019-06-27T09:43:08.587Z,16.97
2019-06-27T09:45:36.998Z,10.43
2019-06-27T09:48:05.417Z,10.28
2019-06-27T09:50:33.820Z,10.70
2019-06-27T09:53:02.249Z,10.63
2019-06-27T09:55:30.727Z,11.15
2019-06-27T09:57:59.144Z,9.73
2019-06-27T10:00:27.680Z,10.08
2019-06-27T10:02:56.118Z,9.20
2019-06-27T10:05:24.526Z,11.25
2019-06-27T10:07:53.043Z,8.80
2019-06-27T10:10:21.540Z,11.00
2019-06-27T10:12:49.956Z,8.13
2019-06-27T10:15:18.639Z,7.67
2019-06-27T10:17:47.045Z,8.08
2019-06-27T10:20:15.713Z,10.80
2019-06-27T10:22:44.135Z,9.80
2019-06-27T10:25:12.960Z,8.38
2019-06-27T10:27:41.372Z,8.68
2019-06-27T10:30:10.551Z,6.97
2019-06-27T10:32:39.012Z,12.15
2019-06-27T10:35:09.162Z,12.05
2019-06-27T10:37:37.629Z,8.58
2019-06-27T10:40:08.741Z,14.30
2019-06-27T10:42:37.142Z,7.67
2019-06-27T10:45:09.137Z,8.95
2019-06-27T10:47:37.917Z,10.28
2019-06-27T10:50:08.171Z,11.70
2019-06-27T10:52:36.577Z,9.03
2019-06-27T10:55:05.857Z,13.70
2019-06-27T10:57:35.343Z,11.53
2019-06-27T11:00:05.674Z,8.68
2019-06-27T11:02:34.089Z,8.35
2019-06-27T11:05:02.470Z,15.15
2019-06-27T11:07:30.899Z,14.58
2019-06-27T11:09:59.317Z,9.58
2019-06-27T11:12:27.716Z,8.10
2019-06-27T11:14:59.521Z,7.20
2019-06-27T11:17:26.840Z,12.15
2019-06-27T11:19:54.941Z,11.12
2019-06-27T11:22:23.352Z,7.83
2019-06-27T11:24:51.777Z,12.68
2019-06-27T11:27:20.170Z,7.58
2019-06-27T11:29:48.580Z,11.50
2019-06-27T11:32:17.001Z,10.23
2019-06-27T11:34:45.398Z,8.25
2019-06-27T11:37:13.806Z,11.53
2019-06-27T11:39:42.292Z,17.00
2019-06-27T11:42:10.721Z,12.95
2019-06-27T11:44:39.191Z,9.10
2019-06-27T11:47:07.605Z,12.80
2019-06-27T11:49:36.013Z,14.18
2019-06-27T11:52:04.483Z,11.85
2019-06-27T11:54:32.937Z,11.70
2019-06-27T11:57:01.414Z,11.78
2019-06-27T11:59:29.841Z,8.63
2019-06-27T12:01:58.265Z,16.95
2019-06-27T12:04:26.706Z,10.85
2019-06-27T12:06:56.762Z,11.20
2019-06-27T12:09:25.172Z,12.50
2019-06-27T12:11:53.246Z,10.78
2019-06-27T12:14:21.666Z,9.05
2019-06-27T12:16:50.098Z,11.18
2019-06-27T12:19:18.610Z,10.68
2019-06-27T12:21:47.010Z,12.07
2019-06-27T12:24:15.478Z,9.25
2019-06-27T12:26:43.899Z,12.98
2019-06-27T12:29:12.315Z,11.97
2019-06-27T12:31:40.749Z,9.45
2019-06-27T12:34:09.177Z,15.35
2019-06-27T12:36:37.580Z,10.85
2019-06-27T12:39:06.010Z,13.28
2019-06-27T12:41:34.465Z,9.28
2019-06-27T12:44:02.954Z,12.95
2019-06-27T12:46:31.441Z,12.98
2019-06-27T12:48:59.848Z,12.85
2019-06-27T12:51:28.271Z,11.12
2019-06-27T12:53:56.671Z,13.35
2019-06-27T12:56:25.873Z,14.05
2019-06-27T12:58:54.269Z,11.30
2019-06-27T13:01:22.676Z,13.48
2019-06-27T13:03:51.203Z,10.30
2019-06-27T13:06:19.806Z,12.25
2019-06-27T13:08:48.209Z,11.70
2019-06-27T13:11:16.650Z,10.38
2019-06-27T13:24:21.622Z,13.98
2019-06-27T13:30:30.849Z,19.02
2019-06-27T13:32:59.274Z,10.30
2019-06-27T13:35:27.740Z,9.50
2019-06-27T13:37:56.150Z,11.12
2019-06-27T13:40:24.556Z,9.70
2019-06-27T13:42:55.552Z,13.10
2019-06-27T13:45:26.371Z,9.58
2019-06-27T13:47:52.910Z,11.10
2019-06-27T13:50:21.331Z,10.23
2019-06-27T13:52:49.737Z,13.88
2019-06-27T13:55:23.598Z,11.43
2019-06-27T13:57:49.873Z,9.70
2019-06-27T14:00:20.978Z,12.55
2019-06-27T14:02:49.386Z,12.18
2019-06-27T14:05:17.865Z,11.95
2019-06-27T14:07:46.273Z,14.75
2019-06-27T14:10:14.857Z,11.20
2019-06-27T14:12:44.896Z,11.03
2019-06-27T14:15:14.420Z,11.78
2019-06-27T14:17:42.828Z,17.50
2019-06-27T14:20:11.781Z,14.73
2019-06-27T14:22:40.194Z,15.90
2019-06-27T14:25:08.680Z,11.73
2019-06-27T14:27:37.086Z,11.25
2019-06-27T14:30:07.462Z,12.78
2019-06-27T14:32:35.853Z,10.80
2019-06-27T14:35:15.165Z,10.08
2019-06-27T14:37:36.098Z,12.10
2019-06-27T14:40:11.573Z,10.38
2019-06-27T14:42:39.976Z,8.95
2019-06-27T14:45:08.621Z,12.53
2019-06-27T14:47:37.033Z,11.60
2019-06-27T14:50:06.538Z,14.05
2019-06-27T14:52:35.258Z,10.15
2019-06-27T14:55:06.062Z,9.75
2019-06-27T14:57:34.996Z,16.67
2019-06-27T15:00:05.415Z,13.65
2019-06-27T15:02:33.896Z,11.25
2019-06-27T15:05:02.319Z,11.40
2019-06-27T15:07:30.728Z,11.18
2019-06-27T15:09:59.236Z,10.98
2019-06-27T15:12:27.731Z,11.20
2019-06-27T15:14:56.131Z,11.90
2019-06-27T15:17:24.542Z,13.32
2019-06-27T15:19:53.121Z,11.33
2019-06-27T15:22:21.200Z,10.98
2019-06-27T15:24:49.609Z,13.32
2019-06-27T15:27:18.051Z,12.10
2019-06-27T15:29:46.453Z,14.15
2019-06-27T15:32:14.949Z,11.80
2019-06-27T15:34:43.364Z,10.78
2019-06-27T15:37:11.772Z,13.65
2019-06-27T15:39:40.179Z,9.65
2019-06-27T15:42:08.593Z,11.80
2019-06-27T15:44:36.996Z,10.65
2019-06-27T15:47:05.440Z,14.15
2019-06-27T15:49:33.843Z,9.73
2019-06-27T15:52:02.311Z,13.85
2019-06-27T15:54:30.729Z,13.53
2019-06-27T15:56:59.205Z,9.30
2019-06-27T15:59:27.616Z,14.45
2019-06-27T16:01:56.069Z,15.72
2019-06-27T16:04:33.652Z,9.45
2019-06-27T16:06:54.575Z,12.73
2019-06-27T16:09:23.930Z,15.08
2019-06-27T16:11:52.478Z,11.28
2019-06-27T16:14:20.972Z,14.20
2019-06-27T16:16:49.371Z,9.90
2019-06-27T16:19:17.809Z,13.72
2019-06-27T16:21:46.258Z,12.55
2019-06-27T16:24:14.701Z,15.78
2019-06-27T16:26:43.132Z,10.70
2019-06-27T16:29:11.550Z,10.85
2019-06-27T16:31:39.954Z,12.85
2019-06-27T16:34:08.389Z,13.70
2019-06-27T16:36:36.784Z,9.68
2019-06-27T16:39:06.437Z,13.35
2019-06-27T16:41:35.213Z,13.65
2019-06-27T16:44:03.701Z,10.45
2019-06-27T16:46:31.847Z,11.43
2019-06-27T16:49:00.329Z,18.92
2019-06-27T16:51:28.737Z,10.50
2019-06-27T16:53:57.152Z,16.97
2019-06-27T16:56:25.577Z,8.78
2019-06-27T16:58:54.009Z,11.20
2019-06-27T17:01:23.404Z,8.63
2019-06-27T17:03:51.812Z,8.75
2019-06-27T17:06:20.217Z,10.58
2019-06-27T17:08:48.628Z,11.35
2019-06-27T17:11:17.034Z,10.98
2019-06-27T17:13:45.538Z,13.05
2019-06-27T17:16:13.933Z,8.98
2019-06-27T17:18:42.354Z,11.60
2019-06-27T17:21:10.767Z,11.08
2019-06-27T17:23:39.177Z,9.35
2019-06-27T17:26:11.381Z,10.82
2019-06-27T17:28:37.740Z,12.90
2019-06-27T17:31:06.140Z,9.03
2019-06-27T17:33:34.245Z,10.48
2019-06-27T17:36:02.650Z,8.98
2019-06-27T17:38:31.104Z,8.65
2019-06-27T17:40:59.511Z,10.45
2019-06-27T17:43:27.914Z,7.65
2019-06-27T17:45:55.994Z,10.08
2019-06-27T17:48:24.395Z,9.33
2019-06-27T17:50:52.869Z,10.63
2019-06-27T17:53:20.976Z,10.75
2019-06-27T17:55:49.458Z,9.30
2019-06-27T17:58:17.911Z,7.62
2019-06-27T18:00:46.326Z,9.68
2019-06-27T18:03:14.736Z,8.15
2019-06-27T18:05:43.145Z,9.63
2019-06-27T18:08:11.559Z,10.93
2019-06-27T18:10:40.320Z,10.65
2019-06-27T18:13:08.721Z,8.60
2019-06-27T18:15:37.128Z,11.03
2019-06-27T18:18:05.532Z,9.78
2019-06-27T18:20:34.047Z,9.60
2019-06-27T18:23:02.453Z,10.38
2019-06-27T18:25:30.554Z,8.38
2019-06-27T18:27:58.955Z,8.05
2019-06-27T18:30:27.104Z,10.30
2019-06-27T18:32:55.711Z,8.40
2019-06-27T18:35:24.106Z,9.80
2019-06-27T18:37:52.949Z,8.50
2019-06-27T18:40:21.533Z,7.62
2019-06-27T18:42:50.568Z,8.30
2019-06-27T18:45:19.220Z,6.10
2019-06-27T18:47:47.638Z,6.97
2019-06-27T18:50:16.310Z,7.15
2019-06-27T18:52:44.710Z,6.60
2019-06-27T18:55:13.132Z,3.40
2019-06-27T18:57:41.533Z,3.40
2019-06-27T19:00:10.692Z,4.70
2019-06-27T19:02:39.117Z,4.30
2019-06-27T19:05:07.926Z,2.87
2019-06-27T19:07:45.566Z,8.78
2019-06-27T19:10:11.048Z,3.83
2019-06-27T19:12:39.467Z,2.83
2019-06-27T19:15:09.764Z,2.58
2019-06-27T19:17:38.246Z,3.33
2019-06-27T19:20:21.697Z,3.77
2019-06-27T19:23:06.973Z,1.80
2019-06-27T19:25:39.944Z,1.72
2019-06-27T19:28:08.348Z,2.47
2019-06-27T19:30:36.788Z,2.05
2019-06-27T19:33:05.461Z,3.83
2019-06-27T19:35:33.581Z,2.50
2019-06-27T19:38:03.074Z,3.47
2019-06-27T19:40:31.765Z,1.20
2019-06-27T19:43:00.220Z,1.95
2019-06-27T19:45:28.853Z,1.20
2019-06-27T19:47:57.279Z,2.77
2019-06-27T19:50:25.677Z,1.90
2019-06-27T19:52:54.089Z,3.00
2019-06-27T19:55:22.490Z,2.10
2019-06-27T19:57:50.919Z,3.17
2019-06-27T20:00:19.658Z,3.50
2019-06-27T20:02:48.067Z,1.50
2019-06-27T20:05:16.470Z,1.95
2019-06-27T20:07:44.884Z,5.33
2019-06-27T20:10:13.729Z,4.20
2019-06-27T20:12:42.148Z,1.52
2019-06-27T20:15:10.984Z,2.35
2019-06-27T20:17:39.068Z,2.80
2019-06-27T20:20:08.109Z,1.87
2019-06-27T20:22:36.562Z,4.90
2019-06-27T20:25:07.549Z,1.12
2019-06-27T20:27:35.966Z,5.28
2019-06-27T20:30:06.283Z,2.70
2019-06-27T20:32:34.813Z,2.15
2019-06-27T20:35:05.117Z,1.85
2019-06-27T20:37:33.521Z,5.28
2019-06-27T20:40:01.930Z,3.98
2019-06-27T20:42:30.348Z,2.27
2019-06-27T20:44:58.753Z,4.45
2019-06-27T20:47:27.226Z,2.27
2019-06-27T20:49:55.633Z,2.15
2019-06-27T20:52:24.061Z,0.70
2019-06-27T20:54:52.458Z,1.45
2019-06-27T20:57:20.877Z,2.35
2019-06-27T20:59:49.362Z,3.35
2019-06-27T21:02:17.786Z,4.67
2019-06-27T21:04:46.193Z,2.95
2019-06-27T21:07:14.610Z,1.57
2019-06-27T21:09:43.021Z,1.00
2019-06-27T21:12:11.489Z,0.95
2019-06-27T21:14:39.896Z,2.87
2019-06-27T21:17:08.310Z,0.80
2019-06-27T21:19:36.712Z,1.10
2019-06-27T21:22:05.151Z,0.98
2019-06-27T21:24:33.576Z,3.45
2019-06-27T21:27:02.224Z,0.95
2019-06-27T21:29:30.634Z,1.82
2019-06-27T21:31:59.036Z,1.17
2019-06-27T21:34:27.455Z,1.47
2019-06-27T21:36:55.854Z,1.57
2019-06-27T21:39:24.272Z,2.30
2019-06-27T21:41:52.665Z,0.85
2019-06-27T21:44:21.080Z,1.37
2019-06-27T21:46:49.484Z,2.02
2019-06-27T21:49:17.898Z,1.07
2019-06-27T21:51:46.296Z,0.80
2019-06-27T21:54:14.721Z,0.80
2019-06-27T21:56:43.124Z,0.90
2019-06-27T21:59:11.621Z,2.12
2019-06-27T22:01:40.179Z,0.70
2019-06-27T22:04:08.605Z,0.90
2019-06-27T22:06:37.066Z,0.80
2019-06-27T22:09:23.026Z,3.25
2019-06-27T22:11:37.041Z,0.80
2019-06-27T22:14:05.556Z,1.47
2019-06-27T22:16:33.962Z,1.82
2019-06-27T22:19:02.386Z,1.22
2019-06-27T22:21:30.784Z,1.35
2019-06-27T22:23:59.202Z,0.90
2019-06-27T22:26:27.613Z,0.88
2019-06-27T22:28:56.073Z,1.37
2019-06-27T22:31:24.480Z,1.00
2019-06-27T22:33:53.272Z,1.15
2019-06-27T22:36:21.662Z,2.37
2019-06-27T22:39:07.901Z,1.80
2019-06-27T22:41:54.536Z,0.82
2019-06-27T22:44:40.987Z,1.82
2019-06-27T22:47:27.536Z,2.17
2019-06-27T22:49:55.429Z,1.00
2019-06-27T22:52:37.369Z,0.65
2019-06-27T22:55:21.600Z,1.30
2019-06-27T22:57:50.008Z,1.55
2019-06-27T23:00:18.576Z,0.70
2019-06-27T23:02:46.976Z,1.15
2019-06-27T23:05:15.397Z,3.30
2019-06-27T23:07:43.785Z,0.93
2019-06-27T23:10:12.372Z,1.00
2019-06-27T23:12:41.044Z,1.20
2019-06-27T23:15:10.112Z,1.15
2019-06-27T23:17:38.709Z,1.72
2019-06-27T23:20:07.883Z,0.70
2019-06-27T23:22:36.272Z,3.25
2019-06-27T23:25:05.261Z,0.60
2019-06-27T23:27:33.672Z,0.95
2019-06-27T23:30:02.158Z,1.07
2019-06-27T23:32:30.546Z,2.95
2019-06-27T23:34:58.983Z,1.07
2019-06-27T23:37:27.381Z,2.47
2019-06-27T23:40:09.591Z,0.90
2019-06-27T23:42:26.022Z,1.35
2019-06-27T23:44:54.432Z,0.70
2019-06-27T23:47:22.864Z,0.78
2019-06-27T23:49:51.336Z,1.50
2019-06-27T23:52:19.736Z,0.80
2019-06-27T23:54:48.161Z,1.25
2019-06-27T23:57:16.548Z,0.98
2019-06-27T23:59:44.967Z,1.85
